createdAt,value
2023-03-30T00:01:20.098Z,100242.34
2023-03-30T00:03:49.285Z,100249.09
2023-03-30T00:06:24.443Z,100241.63
2023-03-30T00:08:57.339Z,100243.19
2023-03-30T00:11:26.996Z,100257.25
2023-03-30T00:13:54.535Z,100252.13
2023-03-30T00:16:21.894Z,100249.97
2023-03-30T00:18:49.043Z,100250.31
2023-03-30T00:21:18.221Z,100234.59
2023-03-30T00:23:49.090Z,100243.25
2023-03-30T00:26:17.611Z,100231.88
2023-03-30T00:28:46.208Z,100222.63
2023-03-30T00:31:13.444Z,100221.56
2023-03-30T00:33:46.305Z,100226.25
2023-03-30T00:36:14.942Z,100214.38
2023-03-30T00:38:42.067Z,100218.72
2023-03-30T00:41:09.431Z,100213.28
2023-03-30T00:43:56.915Z,100212.00
2023-03-30T00:46:24.398Z,100216.03
2023-03-30T00:48:51.675Z,100212.44
2023-03-30T00:51:19.608Z,100210.78
2023-03-30T00:53:50.766Z,100209.75
2023-03-30T00:56:23.524Z,100207.81
2023-03-30T00:58:50.858Z,100196.66
2023-03-30T01:01:25.980Z,100197.81
2023-03-30T01:03:53.865Z,100197.34
2023-03-30T01:06:24.868Z,100195.41
2023-03-30T01:08:53.500Z,100181.53
2023-03-30T01:11:21.647Z,100184.06
2023-03-30T01:14:03.230Z,100177.97
2023-03-30T01:16:38.501Z,100181.56
2023-03-30T01:19:45.008Z,100175.69
2023-03-30T01:22:42.708Z,100180.97
2023-03-30T01:25:18.478Z,100185.47
2023-03-30T01:28:31.051Z,100177.38
2023-03-30T01:31:50.393Z,100186.00
2023-03-30T01:34:51.855Z,100178.38
2023-03-30T01:37:33.112Z,100174.88
2023-03-30T01:40:27.671Z,100176.91
2023-03-30T01:43:19.435Z,100177.31
2023-03-30T01:46:01.685Z,100175.91
2023-03-30T01:48:47.867Z,100180.50
2023-03-30T01:51:33.428Z,100168.81
2023-03-30T01:54:21.393Z,100166.44
2023-03-30T01:56:59.717Z,100164.28
2023-03-30T01:59:36.707Z,100161.19
2023-03-30T02:02:07.287Z,100161.47
2023-03-30T02:04:41.988Z,100153.44
2023-03-30T02:07:21.243Z,100160.25
2023-03-30T02:09:52.043Z,100135.84
2023-03-30T02:12:20.952Z,100150.75
2023-03-30T02:14:49.643Z,100159.03
2023-03-30T02:17:23.117Z,100159.59
2023-03-30T02:19:52.604Z,100158.38
2023-03-30T02:22:20.475Z,100164.75
2023-03-30T02:24:51.680Z,100152.25
2023-03-30T02:27:19.051Z,100156.75
2023-03-30T02:29:46.468Z,100150.84
2023-03-30T02:32:33.686Z,100154.59
2023-03-30T02:35:59.366Z,100154.28
2023-03-30T02:39:19.859Z,100149.03
2023-03-30T02:42:05.119Z,100142.31
2023-03-30T02:44:43.962Z,100136.03
2023-03-30T02:47:52.076Z,100142.25
2023-03-30T02:50:44.929Z,100131.66
2023-03-30T02:53:33.567Z,100136.56
2023-03-30T02:56:19.356Z,100132.03
2023-03-30T02:58:56.696Z,100118.81
2023-03-30T03:01:51.091Z,100132.47
2023-03-30T03:04:22.179Z,100124.56
2023-03-30T03:06:53.085Z,100124.38
2023-03-30T03:09:20.866Z,100127.41
2023-03-30T03:11:47.955Z,100123.38
2023-03-30T03:14:15.003Z,100125.44
2023-03-30T03:16:42.382Z,100118.56
2023-03-30T03:19:10.790Z,100118.94
2023-03-30T03:21:37.793Z,100099.81
2023-03-30T03:24:06.612Z,100117.88
2023-03-30T03:26:34.140Z,100105.47
2023-03-30T03:29:01.128Z,100103.56
2023-03-30T03:31:28.242Z,100102.94
2023-03-30T03:33:55.377Z,100098.44
2023-03-30T03:36:25.350Z,100093.25
2023-03-30T03:38:52.515Z,100099.59
2023-03-30T03:41:19.709Z,100089.81
2023-03-30T03:43:46.921Z,100095.03
2023-03-30T03:46:14.476Z,100087.25
2023-03-30T03:48:41.567Z,100098.47
2023-03-30T03:51:09.896Z,100087.34
2023-03-30T03:53:37.010Z,100084.56
2023-03-30T03:56:04.252Z,100083.59
2023-03-30T03:58:31.874Z,100080.00
2023-03-30T04:01:03.340Z,100086.59
2023-03-30T04:03:30.867Z,100085.72
2023-03-30T04:06:02.491Z,100080.50
2023-03-30T04:08:29.866Z,100075.25
2023-03-30T04:11:08.146Z,100082.44
2023-03-30T04:13:36.076Z,100078.94
2023-03-30T04:16:03.437Z,100080.16
2023-03-30T04:18:34.265Z,100077.81
2023-03-30T04:21:07.626Z,100084.16
2023-03-30T04:23:35.702Z,100082.63
2023-03-30T04:26:07.325Z,100084.00
2023-03-30T04:28:35.724Z,100076.38
2023-03-30T04:31:06.726Z,100068.28
2023-03-30T04:33:35.157Z,100063.31
2023-03-30T04:36:02.396Z,100053.31
2023-03-30T04:38:30.431Z,100058.47
2023-03-30T04:41:00.634Z,100057.84
2023-03-30T04:43:27.675Z,100044.06
2023-03-30T04:45:56.646Z,100053.72
2023-03-30T04:48:24.732Z,100059.94
2023-03-30T04:50:54.189Z,100045.41
2023-03-30T04:53:23.084Z,100051.06
2023-03-30T04:55:51.980Z,100052.63
2023-03-30T04:58:19.049Z,100034.66
2023-03-30T05:00:46.128Z,100048.38
2023-03-30T05:03:13.448Z,100054.19
2023-03-30T05:05:40.727Z,100045.00
2023-03-30T05:08:07.847Z,100047.84
2023-03-30T05:10:35.045Z,100045.91
2023-03-30T05:13:02.130Z,100035.28
2023-03-30T05:15:29.302Z,100045.47
2023-03-30T05:17:56.844Z,100040.38
2023-03-30T05:20:24.141Z,100041.56
2023-03-30T05:22:51.282Z,100034.09
2023-03-30T05:25:18.607Z,100042.47
2023-03-30T05:27:45.811Z,100031.84
2023-03-30T05:30:14.125Z,100024.28
2023-03-30T05:32:41.538Z,100029.03
2023-03-30T05:35:09.057Z,100028.09
2023-03-30T05:37:36.464Z,100023.56
2023-03-30T05:40:07.365Z,100023.69
2023-03-30T05:42:34.464Z,100020.19
2023-03-30T05:45:01.657Z,100026.69
2023-03-30T05:47:29.110Z,100031.88
2023-03-30T05:49:56.174Z,100026.84
2023-03-30T05:52:23.975Z,100034.75
2023-03-30T05:54:51.097Z,100023.09
2023-03-30T05:57:18.246Z,100022.94
2023-03-30T05:59:45.496Z,100014.75
2023-03-30T06:02:13.018Z,100017.81
2023-03-30T06:04:40.224Z,100020.94
2023-03-30T06:07:07.958Z,100017.47
2023-03-30T06:09:35.159Z,100024.19
2023-03-30T06:12:02.709Z,100030.91
2023-03-30T06:14:30.032Z,100011.91
2023-03-30T06:16:57.384Z,100015.94
2023-03-30T06:19:24.573Z,100015.41
2023-03-30T06:21:51.579Z,100015.47
2023-03-30T06:24:20.179Z,100010.28
2023-03-30T06:26:48.666Z,100016.56
2023-03-30T06:29:15.794Z,100013.41
2023-03-30T06:31:42.919Z,100012.81
2023-03-30T06:34:10.001Z,100011.59
2023-03-30T06:36:43.931Z,100012.00
2023-03-30T06:39:13.314Z,100001.84
2023-03-30T06:41:40.694Z,100004.81
2023-03-30T06:44:10.466Z,100002.47
2023-03-30T06:46:38.137Z,99992.69
2023-03-30T06:49:05.179Z,99999.75
2023-03-30T06:51:33.996Z,100000.97
2023-03-30T06:54:01.983Z,99987.06
2023-03-30T06:56:29.014Z,100005.00
2023-03-30T06:58:57.223Z,100006.09
2023-03-30T07:01:24.382Z,100008.09
2023-03-30T07:03:53.517Z,100003.34
2023-03-30T07:06:21.297Z,99982.63
2023-03-30T07:08:48.589Z,99992.13
2023-03-30T07:11:15.630Z,99992.81
2023-03-30T07:13:42.767Z,100001.06
2023-03-30T07:16:10.210Z,99980.38
2023-03-30T07:18:37.312Z,100001.00
2023-03-30T07:21:05.099Z,99980.16
2023-03-30T07:23:32.466Z,99980.19
2023-03-30T07:25:59.942Z,99997.03
2023-03-30T07:28:27.214Z,99996.75
2023-03-30T07:30:54.414Z,99996.13
2023-03-30T07:33:22.177Z,99984.75
2023-03-30T07:35:50.192Z,99985.75
2023-03-30T07:38:17.537Z,99986.59
2023-03-30T07:40:44.710Z,99988.53
2023-03-30T07:43:11.744Z,99987.91
2023-03-30T07:45:38.801Z,99985.28
2023-03-30T07:48:06.054Z,99981.81
2023-03-30T07:50:33.102Z,99978.44
2023-03-30T07:53:00.315Z,99983.38
2023-03-30T07:55:28.804Z,99964.72
2023-03-30T07:57:57.254Z,99988.34
2023-03-30T08:00:25.040Z,99982.56
2023-03-30T08:02:52.319Z,99987.44
2023-03-30T08:05:19.482Z,99985.66
2023-03-30T08:07:46.543Z,99980.84
2023-03-30T08:10:13.635Z,99978.41
2023-03-30T08:12:41.574Z,99977.16
2023-03-30T08:15:09.708Z,99966.31
2023-03-30T08:17:37.308Z,99961.69
2023-03-30T08:20:10.770Z,99965.63
2023-03-30T08:22:37.880Z,99961.75
2023-03-30T08:25:06.044Z,99958.41
2023-03-30T08:27:33.173Z,99958.56
2023-03-30T08:30:00.646Z,99961.34
2023-03-30T08:32:30.343Z,99966.78
2023-03-30T08:34:57.418Z,99950.50
2023-03-30T08:37:25.162Z,99965.78
2023-03-30T08:39:52.367Z,99955.75
2023-03-30T08:42:50.644Z,99952.16
2023-03-30T08:45:18.716Z,99954.25
2023-03-30T08:47:51.120Z,99940.56
2023-03-30T08:50:36.520Z,99941.59
2023-03-30T08:53:08.265Z,99933.91
2023-03-30T08:55:58.641Z,99932.03
2023-03-30T08:58:55.996Z,99928.97
2023-03-30T09:01:29.442Z,99930.03
2023-03-30T09:04:33.557Z,99931.41
2023-03-30T09:07:22.591Z,99922.13
2023-03-30T09:09:55.131Z,99908.25
2023-03-30T09:12:48.667Z,99918.78
2023-03-30T09:15:39.554Z,99914.81
2023-03-30T09:18:32.336Z,99913.16
2023-03-30T09:21:06.327Z,99905.59
2023-03-30T09:23:36.018Z,99903.72
2023-03-30T09:26:14.843Z,99912.34
2023-03-30T09:29:01.174Z,99890.75
2023-03-30T09:31:44.483Z,99896.28
2023-03-30T09:34:38.156Z,99878.59
2023-03-30T09:37:11.890Z,99875.47
2023-03-30T09:39:39.995Z,99870.91
2023-03-30T09:43:10.718Z,99882.16
2023-03-30T09:45:39.352Z,99864.50
2023-03-30T09:48:09.046Z,99860.34
2023-03-30T09:50:43.796Z,99870.19
2023-03-30T09:53:27.766Z,99855.63
2023-03-30T09:56:23.179Z,99858.69
2023-03-30T09:58:50.547Z,99863.00
2023-03-30T10:01:20.666Z,99830.59
2023-03-30T10:04:10.238Z,99843.03
2023-03-30T10:06:50.803Z,99855.31
2023-03-30T10:09:24.113Z,99842.56
2023-03-30T10:11:54.616Z,99840.59
2023-03-30T10:14:33.959Z,99830.59
2023-03-30T10:17:02.336Z,99821.03
2023-03-30T10:19:30.452Z,99824.72
2023-03-30T10:21:59.921Z,99811.00
2023-03-30T10:24:31.589Z,99809.66
2023-03-30T10:27:16.120Z,99811.63
2023-03-30T10:29:50.348Z,99810.53
2023-03-30T10:32:23.644Z,99803.84
2023-03-30T10:35:02.038Z,99786.34
2023-03-30T10:37:39.301Z,99795.16
2023-03-30T10:40:26.644Z,99796.88
2023-03-30T10:42:58.018Z,99787.19
2023-03-30T10:45:35.343Z,99790.63
2023-03-30T10:48:27.356Z,99793.59
2023-03-30T10:51:03.053Z,99792.25
2023-03-30T10:53:39.896Z,99783.41
2023-03-30T10:56:41.423Z,99775.75
2023-03-30T10:59:47.218Z,99775.59
2023-03-30T11:02:40.045Z,99768.44
2023-03-30T11:05:25.116Z,99758.94
2023-03-30T11:08:18.518Z,99756.56
2023-03-30T11:10:53.381Z,99760.38
2023-03-30T11:13:43.049Z,99755.53
2023-03-30T11:16:27.382Z,99753.88
2023-03-30T11:19:07.403Z,99763.75
2023-03-30T11:22:04.864Z,99747.44
2023-03-30T11:24:34.264Z,99745.63
2023-03-30T11:27:14.134Z,99738.44
2023-03-30T11:30:03.297Z,99742.00
2023-03-30T11:33:17.924Z,99729.63
2023-03-30T11:36:19.005Z,99719.22
2023-03-30T11:39:07.424Z,99705.91
2023-03-30T11:41:39.043Z,99711.06
2023-03-30T11:44:08.731Z,99713.97
2023-03-30T11:47:14.952Z,99703.66
2023-03-30T11:50:15.312Z,99700.09
2023-03-30T11:53:03.149Z,99688.50
2023-03-30T11:56:02.968Z,99683.66
2023-03-30T11:58:47.729Z,99677.56
2023-03-30T12:01:41.803Z,99676.88
2023-03-30T12:04:14.921Z,99673.28
2023-03-30T12:07:01.703Z,99662.84
2023-03-30T12:10:02.800Z,99658.53
2023-03-30T12:12:36.449Z,99663.91
2023-03-30T12:15:40.372Z,99657.19
2023-03-30T12:18:31.978Z,99649.25
2023-03-30T12:21:32.519Z,99641.38
2023-03-30T12:24:42.156Z,99646.84
2023-03-30T12:27:11.844Z,99649.41
2023-03-30T12:30:01.750Z,99646.03
2023-03-30T12:32:30.987Z,99652.00
2023-03-30T12:34:58.660Z,99640.53
2023-03-30T12:37:38.231Z,99623.25
2023-03-30T12:40:22.322Z,99630.22
2023-03-30T12:43:15.519Z,99621.81
2023-03-30T12:46:06.166Z,99618.91
2023-03-30T12:49:05.993Z,99611.66
2023-03-30T12:51:53.088Z,99618.69
2023-03-30T12:55:26.741Z,99616.88
2023-03-30T12:58:30.937Z,99615.22
2023-03-30T13:01:18.909Z,99612.47
2023-03-30T13:04:01.711Z,99621.34
2023-03-30T13:06:37.110Z,99611.56
2023-03-30T13:09:15.863Z,99606.22
2023-03-30T13:12:06.913Z,99613.16
2023-03-30T13:14:38.292Z,99610.28
2023-03-30T13:17:08.171Z,99616.47
2023-03-30T13:19:37.348Z,99610.06
2023-03-30T13:22:13.192Z,99601.38
2023-03-30T13:24:47.098Z,99601.34
2023-03-30T13:27:14.028Z,99594.38
2023-03-30T13:29:42.540Z,99586.47
2023-03-30T13:32:23.471Z,99577.59
2023-03-30T13:35:07.367Z,99583.69
2023-03-30T13:37:53.137Z,99577.69
2023-03-30T13:40:41.527Z,99581.22
2023-03-30T13:43:50.908Z,99575.88
2023-03-30T13:46:42.165Z,99570.81
2023-03-30T13:49:18.537Z,99569.03
2023-03-30T13:51:46.383Z,99566.47
2023-03-30T13:54:30.823Z,99561.13
2023-03-30T13:57:09.960Z,99546.13
2023-03-30T13:59:43.616Z,99544.41
2023-03-30T14:02:17.646Z,99545.22
2023-03-30T14:04:45.276Z,99545.28
2023-03-30T14:07:24.191Z,99543.56
2023-03-30T14:10:16.920Z,99541.81
2023-03-30T14:12:46.305Z,99542.75
2023-03-30T14:15:42.600Z,99533.84
2023-03-30T14:18:20.627Z,99532.94
2023-03-30T14:21:00.839Z,99522.28
2023-03-30T14:23:45.530Z,99531.16
2023-03-30T14:26:28.058Z,99516.91
2023-03-30T14:28:59.620Z,99517.72
2023-03-30T14:31:27.409Z,99524.69
2023-03-30T14:33:55.236Z,99501.53
2023-03-30T14:36:22.855Z,99516.63
2023-03-30T14:38:52.968Z,99519.34
2023-03-30T14:41:28.514Z,99512.13
2023-03-30T14:44:06.354Z,99508.66
2023-03-30T14:46:47.013Z,99504.13
2023-03-30T14:49:21.617Z,99502.34
2023-03-30T14:51:51.935Z,99504.28
2023-03-30T14:54:24.492Z,99496.03
2023-03-30T14:57:00.273Z,99499.56
2023-03-30T14:59:29.053Z,99492.31
2023-03-30T15:01:56.948Z,99487.84
2023-03-30T15:04:37.663Z,99492.28
2023-03-30T15:07:05.438Z,99494.88
2023-03-30T15:09:38.600Z,99493.19
2023-03-30T15:12:06.405Z,99493.09
2023-03-30T15:14:39.270Z,99478.06
2023-03-30T15:17:18.178Z,99483.25
2023-03-30T15:19:47.262Z,99490.22
2023-03-30T15:22:35.081Z,99480.34
2023-03-30T15:25:08.169Z,99478.53
2023-03-30T15:27:37.739Z,99472.34
2023-03-30T15:30:06.952Z,99462.66
2023-03-30T15:32:39.205Z,99469.56
2023-03-30T15:35:26.166Z,99469.56
2023-03-30T15:38:11.068Z,99457.94
2023-03-30T15:40:48.133Z,99457.09
2023-03-30T15:43:27.481Z,99449.19
2023-03-30T15:46:07.094Z,99444.78
2023-03-30T15:48:53.673Z,99439.41
2023-03-30T15:51:37.313Z,99428.69
2023-03-30T15:54:40.395Z,99426.13
2023-03-30T15:57:21.313Z,99425.13
2023-03-30T16:00:01.442Z,99422.41
2023-03-30T16:02:46.319Z,99427.50
2023-03-30T16:05:20.867Z,99410.22
2023-03-30T16:07:49.044Z,99410.91
2023-03-30T16:10:32.639Z,99408.09
2023-03-30T16:13:01.395Z,99400.16
2023-03-30T16:15:31.954Z,99391.34
2023-03-30T16:17:59.373Z,99391.22
2023-03-30T16:20:30.757Z,99381.50
2023-03-30T16:22:58.309Z,99392.28
2023-03-30T16:25:37.811Z,99386.13
2023-03-30T16:28:17.299Z,99378.06
2023-03-30T16:30:47.965Z,99380.59
2023-03-30T16:33:15.025Z,99382.22
2023-03-30T16:35:42.137Z,99377.00
2023-03-30T16:38:19.012Z,99379.72
2023-03-30T16:40:54.203Z,99374.28
2023-03-30T16:43:21.490Z,99384.94
2023-03-30T16:45:48.682Z,99377.81
2023-03-30T16:48:16.444Z,99358.56
2023-03-30T16:50:46.670Z,99364.56
2023-03-30T16:53:14.033Z,99360.22
2023-03-30T16:55:41.745Z,99351.31
2023-03-30T16:58:13.807Z,99356.59
2023-03-30T17:00:48.596Z,99341.59
2023-03-30T17:03:16.046Z,99339.75
2023-03-30T17:05:51.468Z,99347.63
2023-03-30T17:08:29.341Z,99334.41
2023-03-30T17:11:04.944Z,99338.94
2023-03-30T17:13:32.675Z,99344.22
2023-03-30T17:16:01.233Z,99340.59
2023-03-30T17:18:28.958Z,99335.06
2023-03-30T17:20:58.721Z,99333.22
2023-03-30T17:23:28.734Z,99323.63
2023-03-30T17:25:58.393Z,99314.91
2023-03-30T17:28:34.819Z,99305.91
2023-03-30T17:31:06.602Z,99315.50
2023-03-30T17:33:36.216Z,99319.91
2023-03-30T17:36:22.973Z,99327.84
2023-03-30T17:38:51.393Z,99334.97
2023-03-30T17:41:19.829Z,99325.19
2023-03-30T17:43:48.378Z,99332.13
2023-03-30T17:46:18.816Z,99336.63
2023-03-30T17:48:46.481Z,99333.81
2023-03-30T17:51:13.508Z,99341.69
2023-03-30T17:53:40.604Z,99332.84
2023-03-30T17:56:07.905Z,99332.19
2023-03-30T17:58:36.698Z,99334.00
2023-03-30T18:01:08.284Z,99334.88
2023-03-30T18:03:38.478Z,99307.72
2023-03-30T18:06:06.523Z,99313.84
2023-03-30T18:08:33.584Z,99311.13
2023-03-30T18:11:01.678Z,99317.34
2023-03-30T18:13:30.583Z,99316.56
2023-03-30T18:16:00.145Z,99301.47
2023-03-30T18:18:30.928Z,99290.84
2023-03-30T18:21:03.091Z,99297.72
2023-03-30T18:23:34.968Z,99289.81
2023-03-30T18:26:09.265Z,99295.28
2023-03-30T18:28:40.555Z,99296.13
2023-03-30T18:31:08.932Z,99295.28
2023-03-30T18:33:36.259Z,99298.66
2023-03-30T18:36:07.576Z,99294.25
2023-03-30T18:38:35.363Z,99298.66
2023-03-30T18:41:02.447Z,99297.78
2023-03-30T18:43:29.645Z,99292.38
2023-03-30T18:46:02.595Z,99285.50
2023-03-30T18:48:30.957Z,99287.16
2023-03-30T18:50:58.477Z,99284.44
2023-03-30T18:53:28.374Z,99286.06
2023-03-30T18:56:00.733Z,99281.66
2023-03-30T18:58:33.633Z,99278.16
2023-03-30T19:01:01.491Z,99296.66
2023-03-30T19:03:30.136Z,99289.50
2023-03-30T19:05:57.412Z,99274.63
2023-03-30T19:08:26.540Z,99286.09
2023-03-30T19:10:57.279Z,99271.88
2023-03-30T19:13:26.491Z,99286.81
2023-03-30T19:15:54.091Z,99279.66
2023-03-30T19:18:21.607Z,99286.03
2023-03-30T19:20:50.145Z,99283.31
2023-03-30T19:23:18.752Z,99275.22
2023-03-30T19:25:46.117Z,99273.31
2023-03-30T19:28:14.693Z,99268.88
2023-03-30T19:30:41.974Z,99268.78
2023-03-30T19:33:12.850Z,99252.75
2023-03-30T19:35:41.614Z,99256.44
2023-03-30T19:38:09.677Z,99255.47
2023-03-30T19:40:41.563Z,99240.19
2023-03-30T19:43:09.427Z,99256.19
2023-03-30T19:45:36.801Z,99260.53
2023-03-30T19:48:04.237Z,99252.66
2023-03-30T19:50:31.735Z,99246.31
2023-03-30T19:52:59.514Z,99250.97
2023-03-30T19:55:27.161Z,99227.78
2023-03-30T19:57:54.575Z,99242.84
2023-03-30T20:00:21.942Z,99234.03
2023-03-30T20:02:53.155Z,99233.97
2023-03-30T20:05:24.725Z,99231.28
2023-03-30T20:07:52.798Z,99228.03
2023-03-30T20:10:24.582Z,99223.50
2023-03-30T20:12:53.184Z,99227.88
2023-03-30T20:15:22.906Z,99229.53
2023-03-30T20:17:50.215Z,99224.38
2023-03-30T20:20:22.891Z,99222.16
2023-03-30T20:22:53.474Z,99216.69
2023-03-30T20:25:24.845Z,99214.81
2023-03-30T20:27:52.765Z,99218.53
2023-03-30T20:30:21.194Z,99219.25
2023-03-30T20:33:03.804Z,99214.81
2023-03-30T20:35:37.993Z,99212.16
2023-03-30T20:38:06.332Z,99206.81
2023-03-30T20:40:33.395Z,99211.13
2023-03-30T20:43:03.620Z,99201.56
2023-03-30T20:45:31.954Z,99206.91
2023-03-30T20:48:06.018Z,99202.66
2023-03-30T20:50:33.966Z,99201.47
2023-03-30T20:53:01.595Z,99205.88
2023-03-30T20:55:28.594Z,99200.19
2023-03-30T20:57:55.666Z,99186.72
2023-03-30T21:00:23.307Z,99191.09
2023-03-30T21:02:50.359Z,99185.88
2023-03-30T21:05:17.536Z,99183.97
2023-03-30T21:07:47.269Z,99176.16
2023-03-30T21:10:16.365Z,99169.81
2023-03-30T21:12:43.530Z,99166.47
2023-03-30T21:15:11.184Z,99173.66
2023-03-30T21:17:38.584Z,99173.44
2023-03-30T21:20:09.233Z,99165.47
2023-03-30T21:22:36.555Z,99169.97
2023-03-30T21:25:03.957Z,99164.97
2023-03-30T21:27:31.022Z,99162.06
2023-03-30T21:29:58.201Z,99166.41
2023-03-30T21:32:25.440Z,99162.13
2023-03-30T21:34:52.617Z,99164.09
2023-03-30T21:37:19.700Z,99167.59
2023-03-30T21:39:46.891Z,99157.72
2023-03-30T21:42:13.974Z,99162.31
2023-03-30T21:44:40.992Z,99146.22
2023-03-30T21:47:08.035Z,99150.72
2023-03-30T21:49:37.268Z,99157.03
2023-03-30T21:52:04.595Z,99143.75
2023-03-30T21:54:31.753Z,99139.44
2023-03-30T21:56:58.837Z,99136.00
2023-03-30T21:59:25.946Z,99131.31
2023-03-30T22:01:53.166Z,99128.59
2023-03-30T22:04:20.822Z,99123.66
2023-03-30T22:06:47.942Z,99115.63
2023-03-30T22:09:15.020Z,99106.97
2023-03-30T22:11:42.657Z,99108.59
2023-03-30T22:14:09.692Z,99114.88
2023-03-30T22:16:36.905Z,99112.44
2023-03-30T22:19:04.872Z,99105.31
2023-03-30T22:21:35.607Z,99107.03
2023-03-30T22:24:07.684Z,99107.09
2023-03-30T22:26:36.290Z,99100.09
2023-03-30T22:29:04.594Z,99103.53
2023-03-30T22:31:32.774Z,99106.28
2023-03-30T22:33:59.880Z,99100.19
2023-03-30T22:36:30.919Z,99085.06
2023-03-30T22:39:00.267Z,99093.97
2023-03-30T22:41:28.357Z,99092.94
2023-03-30T22:43:57.581Z,99089.41
2023-03-30T22:46:27.090Z,99087.41
2023-03-30T22:48:55.660Z,99092.94
2023-03-30T22:51:27.672Z,99083.28
2023-03-30T22:53:59.405Z,99087.66
2023-03-30T22:56:30.762Z,99095.56
2023-03-30T22:59:01.380Z,99100.91
2023-03-30T23:01:32.092Z,99092.94
2023-03-30T23:03:59.764Z,99085.78
2023-03-30T23:06:26.998Z,99096.56
2023-03-30T23:08:54.579Z,99076.28
2023-03-30T23:11:21.673Z,99088.56
2023-03-30T23:13:49.195Z,99083.34
2023-03-30T23:16:16.218Z,99080.75
2023-03-30T23:18:43.268Z,99079.84
2023-03-30T23:21:11.156Z,99083.53
2023-03-30T23:23:38.550Z,99067.38
2023-03-30T23:26:09.742Z,99086.72
2023-03-30T23:28:42.522Z,99084.28
2023-03-30T23:31:15.911Z,99105.19
2023-03-30T23:33:43.675Z,99106.13
2023-03-30T23:36:17.353Z,99101.75
2023-03-30T23:38:45.031Z,99105.16
2023-03-30T23:41:19.074Z,99104.47
2023-03-30T23:43:47.072Z,99116.84
2023-03-30T23:46:15.571Z,99103.53
2023-03-30T23:48:43.172Z,99111.41
2023-03-30T23:51:10.701Z,99115.75
2023-03-30T23:53:41.720Z,99110.53
2023-03-30T23:56:17.790Z,99118.31
2023-03-30T23:58:46.146Z,99109.44
